createdAt,value
2017-04-15T00:00:38.909Z,7.47
2017-04-15T00:01:37.932Z,8.07
2017-04-15T00:02:36.890Z,8.85
2017-04-15T00:03:35.895Z,7.38
2017-04-15T00:04:34.873Z,7.38
2017-04-15T00:05:33.896Z,7.72
2017-04-15T00:06:32.856Z,6.25
2017-04-15T00:07:31.823Z,8.32
2017-04-15T00:08:30.849Z,6.93
2017-04-15T00:09:29.476Z,7.15
2017-04-15T00:10:28.437Z,7.22
2017-04-15T00:11:27.444Z,7.48
2017-04-15T00:12:26.049Z,7.30
2017-04-15T00:13:25.176Z,7.05
2017-04-15T00:14:24.175Z,7.55
2017-04-15T00:15:23.172Z,8.47
2017-04-15T00:16:22.217Z,7.20
2017-04-15T00:17:21.197Z,7.83
2017-04-15T00:18:20.164Z,8.30
2017-04-15T00:19:19.569Z,8.10
2017-04-15T00:20:18.688Z,7.35
2017-04-15T00:21:17.676Z,7.77
2017-04-15T00:22:16.657Z,7.60
2017-04-15T00:23:15.645Z,8.25
2017-04-15T00:24:14.951Z,7.97
2017-04-15T00:25:13.986Z,8.03
2017-04-15T00:26:13.276Z,7.50
2017-04-15T00:27:12.267Z,7.77
2017-04-15T00:28:11.360Z,7.73
2017-04-15T00:29:10.349Z,7.95
2017-04-15T00:30:09.364Z,7.13
2017-04-15T00:31:09.095Z,7.43
2017-04-15T00:32:08.053Z,7.65
2017-04-15T00:33:07.081Z,8.93
2017-04-15T00:34:06.054Z,8.75
2017-04-15T00:35:05.065Z,7.80
2017-04-15T00:36:04.086Z,6.63
2017-04-15T00:37:03.356Z,7.27
2017-04-15T00:38:02.387Z,7.22
2017-04-15T00:39:01.412Z,7.67
2017-04-15T00:40:00.423Z,7.68
2017-04-15T00:40:59.464Z,8.12
2017-04-15T00:41:58.558Z,7.45
2017-04-15T00:42:57.607Z,8.15
2017-04-15T00:43:56.591Z,8.13
2017-04-15T00:44:55.591Z,6.87
2017-04-15T00:45:54.575Z,7.48
2017-04-15T00:46:53.536Z,7.08
2017-04-15T00:47:52.644Z,7.77
2017-04-15T00:48:51.671Z,7.45
2017-04-15T00:49:50.599Z,7.92
2017-04-15T00:50:49.615Z,8.25
2017-04-15T00:51:48.663Z,7.72
2017-04-15T00:52:47.618Z,8.52
2017-04-15T00:53:46.600Z,8.53
2017-04-15T00:54:45.993Z,7.95
2017-04-15T00:55:44.929Z,8.05
2017-04-15T00:56:44.012Z,8.48
2017-04-15T00:57:42.999Z,7.65
2017-04-15T00:58:42.009Z,9.00
2017-04-15T00:59:41.001Z,8.52
2017-04-15T01:00:40.019Z,8.03
2017-04-15T01:01:39.093Z,8.37
2017-04-15T01:02:37.680Z,8.32
2017-04-15T01:03:36.704Z,8.10
2017-04-15T01:04:35.624Z,9.88
2017-04-15T01:05:34.630Z,6.92
2017-04-15T01:06:33.555Z,8.47
2017-04-15T01:07:32.569Z,8.10
2017-04-15T01:08:32.236Z,8.72
2017-04-15T01:09:31.167Z,8.00
2017-04-15T01:10:30.192Z,7.60
2017-04-15T01:11:29.162Z,8.25
2017-04-15T01:12:28.123Z,8.27
2017-04-15T01:13:27.141Z,8.60
2017-04-15T01:14:26.120Z,7.13
2017-04-15T01:15:25.134Z,8.15
2017-04-15T01:16:24.070Z,7.67
2017-04-15T01:17:23.071Z,8.40
2017-04-15T01:18:22.069Z,7.45
2017-04-15T01:19:21.005Z,7.63
2017-04-15T01:20:20.046Z,8.78
2017-04-15T01:21:19.077Z,8.60
2017-04-15T01:22:18.150Z,8.35
2017-04-15T01:23:17.125Z,7.65
2017-04-15T01:24:16.155Z,7.33
2017-04-15T01:25:15.143Z,8.77
2017-04-15T01:26:14.520Z,8.47
2017-04-15T01:27:13.559Z,8.17
2017-04-15T01:28:12.492Z,8.12
2017-04-15T01:29:11.490Z,7.53
2017-04-15T01:30:10.458Z,8.03
2017-04-15T01:31:09.487Z,8.83
2017-04-15T01:32:08.527Z,8.67
2017-04-15T01:33:07.115Z,7.78
2017-04-15T01:34:06.251Z,8.43
2017-04-15T01:35:05.318Z,8.02
2017-04-15T01:36:04.398Z,7.92
2017-04-15T01:37:03.777Z,8.62
2017-04-15T01:38:02.787Z,8.42
2017-04-15T01:39:01.811Z,8.05
2017-04-15T01:40:00.785Z,8.18
2017-04-15T01:40:59.759Z,8.57
2017-04-15T01:41:58.717Z,9.33
2017-04-15T01:42:57.729Z,9.23
2017-04-15T01:43:56.817Z,8.78
2017-04-15T01:44:55.777Z,9.00
2017-04-15T01:45:54.824Z,8.70
2017-04-15T01:46:53.867Z,8.40
2017-04-15T01:47:52.837Z,9.17
2017-04-15T01:48:51.825Z,9.20
2017-04-15T01:49:50.791Z,9.38
2017-04-15T01:50:49.832Z,7.80
2017-04-15T01:51:48.814Z,8.27
2017-04-15T01:52:47.861Z,8.92
2017-04-15T01:53:46.805Z,8.17
2017-04-15T01:54:45.847Z,8.87
2017-04-15T01:55:45.611Z,7.87
2017-04-15T01:56:44.579Z,8.55
2017-04-15T01:57:43.605Z,9.87
2017-04-15T01:58:42.547Z,7.72
2017-04-15T01:59:41.530Z,8.50
2017-04-15T02:00:40.574Z,9.68
2017-04-15T02:01:39.662Z,9.65
2017-04-15T02:02:38.652Z,9.07
2017-04-15T02:03:37.697Z,8.00
2017-04-15T02:04:36.691Z,8.92
2017-04-15T02:05:35.735Z,8.63
2017-04-15T02:06:34.780Z,9.23
2017-04-15T02:07:33.809Z,9.13
2017-04-15T02:08:32.817Z,9.02
2017-04-15T02:09:31.857Z,9.17
2017-04-15T02:10:30.528Z,8.60
2017-04-15T02:11:29.522Z,9.05
2017-04-15T02:12:28.493Z,9.23
2017-04-15T02:13:27.551Z,9.10
2017-04-15T02:14:26.569Z,8.10
2017-04-15T02:15:25.667Z,8.78
2017-04-15T02:16:24.663Z,8.08
2017-04-15T02:17:23.647Z,8.78
2017-04-15T02:18:23.064Z,8.90
2017-04-15T02:19:22.158Z,9.40
2017-04-15T02:20:21.198Z,8.68
2017-04-15T02:21:20.183Z,8.55
2017-04-15T02:22:19.180Z,9.47
2017-04-15T02:23:18.132Z,8.95
2017-04-15T02:24:17.154Z,9.35
2017-04-15T02:25:16.575Z,9.63
2017-04-15T02:26:15.567Z,9.77
2017-04-15T02:27:14.558Z,9.67
2017-04-15T02:28:13.598Z,8.17
2017-04-15T02:29:12.525Z,9.10
2017-04-15T02:30:11.558Z,7.55
2017-04-15T02:31:10.529Z,8.82
2017-04-15T02:32:09.612Z,9.42
2017-04-15T02:33:08.203Z,9.02
2017-04-15T02:34:07.170Z,9.72
2017-04-15T02:35:06.139Z,8.75
2017-04-15T02:36:05.109Z,9.77
2017-04-15T02:37:04.188Z,10.05
2017-04-15T02:38:03.226Z,9.07
2017-04-15T02:39:02.188Z,8.80
2017-04-15T02:40:01.163Z,9.10
2017-04-15T02:41:00.171Z,8.78
2017-04-15T02:41:59.215Z,9.80
2017-04-15T02:42:58.248Z,8.38
2017-04-15T02:43:56.767Z,9.10
2017-04-15T02:44:55.788Z,9.45
2017-04-15T02:45:54.783Z,9.60
2017-04-15T02:46:54.143Z,8.83
2017-04-15T02:47:53.164Z,8.72
2017-04-15T02:48:52.172Z,8.93
2017-04-15T02:49:51.160Z,9.37
2017-04-15T02:50:50.247Z,9.20
2017-04-15T02:51:49.228Z,9.12
2017-04-15T02:52:48.231Z,8.45
2017-04-15T02:53:47.206Z,8.98
2017-04-15T02:54:46.651Z,8.65
2017-04-15T02:55:45.627Z,8.92
2017-04-15T02:56:44.596Z,8.63
2017-04-15T02:57:43.580Z,8.72
2017-04-15T02:58:42.538Z,9.52
2017-04-15T02:59:41.506Z,9.03
2017-04-15T03:00:40.587Z,9.32
2017-04-15T03:01:39.548Z,8.48
2017-04-15T03:02:38.575Z,9.83
2017-04-15T03:03:37.551Z,9.63
2017-04-15T03:04:36.574Z,8.48
2017-04-15T03:05:35.552Z,8.42
2017-04-15T03:06:34.565Z,10.12
2017-04-15T03:07:33.563Z,9.50
2017-04-15T03:08:32.508Z,10.12
2017-04-15T03:09:31.535Z,9.05
2017-04-15T03:10:30.486Z,8.87
2017-04-15T03:11:29.521Z,8.70
2017-04-15T03:12:28.524Z,9.65
2017-04-15T03:13:27.522Z,8.93
2017-04-15T03:14:26.563Z,8.30
2017-04-15T03:15:25.542Z,9.92
2017-04-15T03:16:24.511Z,8.47
2017-04-15T03:17:23.527Z,8.55
2017-04-15T03:18:22.571Z,9.58
2017-04-15T03:19:21.594Z,8.02
2017-04-15T03:20:20.583Z,9.90
2017-04-15T03:21:19.623Z,10.12
2017-04-15T03:22:18.978Z,8.52
2017-04-15T03:23:17.936Z,9.18
2017-04-15T03:24:16.544Z,8.55
2017-04-15T03:25:15.496Z,9.50
2017-04-15T03:26:14.531Z,9.17
2017-04-15T03:27:13.556Z,9.10
2017-04-15T03:28:12.576Z,8.25
2017-04-15T03:29:11.549Z,9.77
2017-04-15T03:30:10.524Z,9.15
2017-04-15T03:31:09.538Z,9.45
2017-04-15T03:32:08.504Z,9.60
2017-04-15T03:33:07.564Z,9.20
2017-04-15T03:34:06.532Z,9.12
2017-04-15T03:35:05.531Z,9.20
2017-04-15T03:36:04.551Z,7.92
2017-04-15T03:37:03.555Z,9.77
2017-04-15T03:38:02.567Z,7.50
2017-04-15T03:39:01.573Z,10.95
2017-04-15T03:40:00.579Z,9.05
2017-04-15T03:40:59.535Z,9.02
2017-04-15T03:41:58.532Z,9.08
2017-04-15T03:42:57.506Z,7.88
2017-04-15T03:43:56.518Z,9.10
2017-04-15T03:44:55.483Z,9.85
2017-04-15T03:45:54.444Z,9.70
2017-04-15T03:46:53.650Z,9.28
2017-04-15T03:47:52.684Z,8.35
2017-04-15T03:48:51.631Z,9.28
2017-04-15T03:49:50.648Z,8.38
2017-04-15T03:50:49.956Z,9.20
2017-04-15T03:51:48.945Z,8.92
2017-04-15T03:52:47.910Z,10.10
2017-04-15T03:53:46.925Z,9.10
2017-04-15T03:54:46.280Z,8.57
2017-04-15T03:55:45.233Z,9.37
2017-04-15T03:56:44.236Z,9.93
2017-04-15T03:57:43.244Z,9.12
2017-04-15T03:58:42.222Z,10.42
2017-04-15T03:59:41.247Z,9.73
2017-04-15T04:00:40.235Z,11.22
2017-04-15T04:01:39.228Z,8.62
2017-04-15T04:02:38.261Z,8.92
2017-04-15T04:03:37.249Z,9.07
2017-04-15T04:04:36.194Z,9.45
2017-04-15T04:05:35.234Z,10.40
2017-04-15T04:06:34.229Z,8.90
2017-04-15T04:07:33.204Z,9.08
2017-04-15T04:08:32.239Z,8.75
2017-04-15T04:09:31.267Z,9.70
2017-04-15T04:10:30.212Z,9.80
2017-04-15T04:11:29.267Z,9.22
2017-04-15T04:12:28.281Z,9.30
2017-04-15T04:13:27.259Z,8.75
2017-04-15T04:14:26.227Z,9.72
2017-04-15T04:15:25.215Z,9.18
2017-04-15T04:16:24.194Z,9.32
2017-04-15T04:17:22.823Z,9.30
2017-04-15T04:18:21.776Z,8.95
2017-04-15T04:19:20.739Z,9.60
2017-04-15T04:20:19.709Z,9.78
2017-04-15T04:21:19.151Z,9.37
2017-04-15T04:22:18.094Z,9.12
2017-04-15T04:23:17.135Z,8.92
2017-04-15T04:24:16.050Z,8.53
2017-04-15T04:25:15.075Z,9.87
2017-04-15T04:26:14.423Z,9.03
2017-04-15T04:27:13.423Z,10.53
2017-04-15T04:28:12.399Z,9.13
2017-04-15T04:29:11.396Z,9.02
2017-04-15T04:30:10.379Z,9.30
2017-04-15T04:31:09.372Z,8.70
2017-04-15T04:32:08.323Z,9.05
2017-04-15T04:33:07.304Z,9.23
2017-04-15T04:34:06.332Z,8.43
2017-04-15T04:35:05.327Z,9.10
2017-04-15T04:36:04.379Z,8.60
2017-04-15T04:37:03.382Z,9.63
2017-04-15T04:38:02.416Z,10.00
2017-04-15T04:39:00.979Z,8.97
2017-04-15T04:40:00.005Z,10.25
2017-04-15T04:40:59.011Z,11.95
2017-04-15T04:41:58.036Z,8.97
2017-04-15T04:42:56.971Z,9.47
2017-04-15T04:43:56.031Z,9.22
2017-04-15T04:44:54.624Z,9.52
2017-04-15T04:45:53.578Z,9.32
2017-04-15T04:46:52.591Z,9.87
2017-04-15T04:47:51.667Z,8.77
2017-04-15T04:48:50.647Z,9.25
2017-04-15T04:49:49.622Z,9.93
2017-04-15T04:50:48.620Z,8.22
2017-04-15T04:51:47.584Z,8.63
2017-04-15T04:52:46.625Z,8.58
2017-04-15T04:53:45.599Z,9.20
2017-04-15T04:54:44.571Z,9.27
2017-04-15T04:55:43.535Z,9.72
2017-04-15T04:56:42.532Z,9.25
2017-04-15T04:57:41.522Z,9.15
2017-04-15T04:58:40.547Z,9.83
2017-04-15T04:59:40.254Z,9.55
2017-04-15T05:00:39.338Z,8.48
2017-04-15T05:01:38.336Z,9.10
2017-04-15T05:02:37.275Z,10.87
2017-04-15T05:03:36.271Z,10.05
2017-04-15T05:04:35.423Z,9.58
2017-04-15T05:05:34.456Z,8.78
2017-04-15T05:06:33.383Z,9.42
2017-04-15T05:07:32.392Z,9.75
2017-04-15T05:08:31.378Z,10.40
2017-04-15T05:09:30.295Z,8.58
2017-04-15T05:10:29.347Z,8.85
2017-04-15T05:11:28.300Z,10.72
2017-04-15T05:12:27.293Z,8.95
2017-04-15T05:13:26.314Z,8.67
2017-04-15T05:14:25.307Z,9.25
2017-04-15T05:15:24.344Z,8.53
2017-04-15T05:16:23.331Z,9.63
2017-04-15T05:17:22.259Z,8.92
2017-04-15T05:18:21.306Z,8.90
2017-04-15T05:19:20.352Z,8.82
2017-04-15T05:20:19.367Z,8.72
2017-04-15T05:21:18.340Z,9.75
2017-04-15T05:22:17.321Z,8.72
2017-04-15T05:23:16.324Z,9.15
2017-04-15T05:24:15.379Z,9.43
2017-04-15T05:25:14.352Z,8.20
2017-04-15T05:26:13.391Z,9.50
2017-04-15T05:27:12.391Z,9.98
2017-04-15T05:28:11.364Z,9.45
2017-04-15T05:29:10.372Z,10.25
2017-04-15T05:30:09.346Z,9.73
2017-04-15T05:31:08.257Z,9.58
2017-04-15T05:32:07.297Z,10.07
2017-04-15T05:33:06.275Z,8.98
2017-04-15T05:34:05.444Z,10.55
2017-04-15T05:35:04.399Z,10.75
2017-04-15T05:36:03.424Z,9.30
2017-04-15T05:37:02.436Z,8.75
2017-04-15T05:38:01.423Z,10.10
2017-04-15T05:39:00.365Z,9.35
2017-04-15T05:40:00.158Z,9.93
2017-04-15T05:40:59.275Z,8.75
2017-04-15T05:41:58.220Z,11.80
2017-04-15T05:42:57.179Z,9.47
2017-04-15T05:43:56.188Z,9.93
2017-04-15T05:44:55.185Z,9.90
2017-04-15T05:45:54.536Z,10.15
2017-04-15T05:46:53.178Z,9.70
2017-04-15T05:47:52.204Z,9.98
2017-04-15T05:48:51.291Z,9.48
2017-04-15T05:49:50.221Z,9.05
2017-04-15T05:50:49.268Z,10.67
2017-04-15T05:51:48.207Z,9.80
2017-04-15T05:52:47.236Z,8.93
2017-04-15T05:53:46.211Z,9.75
2017-04-15T05:54:45.224Z,9.85
2017-04-15T05:55:44.203Z,9.63
2017-04-15T05:56:43.125Z,9.85
2017-04-15T05:57:42.145Z,10.03
2017-04-15T05:58:41.161Z,10.68
2017-04-15T05:59:40.174Z,10.23
2017-04-15T06:00:38.743Z,9.20
2017-04-15T06:01:37.755Z,8.85
2017-04-15T06:02:36.687Z,10.18
2017-04-15T06:03:35.714Z,8.87
2017-04-15T06:04:34.862Z,9.62
2017-04-15T06:05:33.795Z,9.17
2017-04-15T06:06:32.792Z,8.97
2017-04-15T06:07:31.782Z,11.00
2017-04-15T06:08:30.768Z,9.77
2017-04-15T06:09:29.774Z,8.95
2017-04-15T06:10:28.772Z,11.35
2017-04-15T06:11:27.767Z,10.07
2017-04-15T06:12:26.830Z,9.73
2017-04-15T06:13:26.179Z,10.22
2017-04-15T06:14:25.175Z,9.35
2017-04-15T06:15:24.183Z,9.33
2017-04-15T06:16:23.147Z,10.17
2017-04-15T06:17:22.111Z,9.08
2017-04-15T06:18:21.094Z,8.87
2017-04-15T06:19:20.067Z,11.12
2017-04-15T06:20:19.019Z,9.48
2017-04-15T06:21:18.024Z,10.90
2017-04-15T06:22:16.965Z,9.73
2017-04-15T06:23:16.734Z,10.15
2017-04-15T06:24:15.752Z,10.02
2017-04-15T06:25:15.103Z,9.57
2017-04-15T06:26:14.467Z,10.30
2017-04-15T06:27:13.411Z,9.70
2017-04-15T06:28:12.396Z,9.75
2017-04-15T06:29:11.387Z,10.25
2017-04-15T06:30:10.375Z,10.23
2017-04-15T06:31:09.372Z,9.10
2017-04-15T06:32:08.322Z,9.98
2017-04-15T06:33:07.300Z,9.45
2017-04-15T06:34:06.295Z,9.77
2017-04-15T06:35:05.340Z,9.80
2017-04-15T06:36:04.320Z,10.05
2017-04-15T06:37:03.269Z,9.47
2017-04-15T06:38:02.267Z,9.60
2017-04-15T06:39:00.949Z,9.78
2017-04-15T06:39:59.896Z,9.73
2017-04-15T06:40:58.961Z,9.53
2017-04-15T06:41:58.007Z,10.42
2017-04-15T06:42:57.007Z,10.37
2017-04-15T06:43:55.974Z,10.25
2017-04-15T06:44:54.940Z,9.52
2017-04-15T06:45:53.924Z,10.37
2017-04-15T06:46:52.857Z,9.87
2017-04-15T06:47:51.871Z,8.77
2017-04-15T06:48:50.849Z,9.32
2017-04-15T06:49:49.796Z,9.63
2017-04-15T06:50:48.856Z,10.08
2017-04-15T06:51:47.435Z,10.27
2017-04-15T06:52:46.409Z,9.07
2017-04-15T06:53:45.488Z,10.47
2017-04-15T06:54:44.443Z,9.80
2017-04-15T06:55:43.479Z,10.18
2017-04-15T06:56:42.519Z,9.93
2017-04-15T06:57:41.550Z,10.10
2017-04-15T06:58:40.571Z,9.75
2017-04-15T06:59:39.547Z,10.48
2017-04-15T07:00:38.576Z,9.85
2017-04-15T07:01:37.556Z,9.53
2017-04-15T07:02:44.769Z,9.92
2017-04-15T07:03:43.715Z,9.98
2017-04-15T07:04:42.751Z,10.72
2017-04-15T07:05:41.759Z,9.67
2017-04-15T07:06:40.758Z,9.20
2017-04-15T07:07:39.760Z,10.28
2017-04-15T07:08:38.717Z,9.97
2017-04-15T07:09:37.369Z,10.43
2017-04-15T07:10:36.347Z,10.68
2017-04-15T07:11:35.350Z,9.60
2017-04-15T07:12:34.378Z,9.63
2017-04-15T07:13:33.335Z,12.10
2017-04-15T07:14:32.379Z,10.12
2017-04-15T07:15:31.345Z,9.65
2017-04-15T07:16:30.392Z,9.82
2017-04-15T07:17:29.370Z,10.55
2017-04-15T07:18:28.379Z,11.68
2017-04-15T07:19:27.359Z,10.02
2017-04-15T07:20:26.349Z,9.73
2017-04-15T07:21:25.309Z,10.87
2017-04-15T07:22:24.284Z,10.68
2017-04-15T07:23:23.286Z,9.93
2017-04-15T07:24:22.307Z,10.63
2017-04-15T07:25:21.281Z,10.30
2017-04-15T07:26:20.267Z,10.20
2017-04-15T07:27:19.644Z,10.83
2017-04-15T07:28:18.674Z,10.73
2017-04-15T07:29:17.692Z,10.37
2017-04-15T07:30:16.675Z,10.12
2017-04-15T07:31:15.275Z,10.10
2017-04-15T07:32:14.267Z,9.93
2017-04-15T07:33:13.216Z,9.50
2017-04-15T07:34:12.200Z,11.18
2017-04-15T07:35:11.203Z,10.00
2017-04-15T07:36:10.283Z,10.28
2017-04-15T07:37:09.290Z,9.85
2017-04-15T07:38:08.293Z,10.13
2017-04-15T07:39:07.290Z,10.55
2017-04-15T07:40:06.286Z,9.15
2017-04-15T07:41:05.267Z,9.92
2017-04-15T07:42:03.828Z,9.25
2017-04-15T07:43:02.869Z,10.35
2017-04-15T07:44:01.927Z,10.80
2017-04-15T07:45:00.865Z,11.82
2017-04-15T07:45:59.878Z,10.75
2017-04-15T07:46:58.851Z,10.30
2017-04-15T07:47:58.197Z,10.75
2017-04-15T07:48:57.155Z,10.63
2017-04-15T07:49:56.202Z,10.45
2017-04-15T07:50:55.176Z,10.03
2017-04-15T07:51:54.151Z,11.00
2017-04-15T07:52:52.774Z,10.75
2017-04-15T07:53:51.756Z,10.42
2017-04-15T07:54:50.790Z,10.80
2017-04-15T07:55:49.787Z,9.97
2017-04-15T07:56:48.815Z,10.38
2017-04-15T07:57:48.258Z,10.07
2017-04-15T07:58:47.303Z,10.82
2017-04-15T07:59:46.271Z,11.25
2017-04-15T08:00:45.460Z,20.92
2017-04-15T08:01:44.426Z,10.45
2017-04-15T08:02:43.528Z,11.83
2017-04-15T08:03:42.568Z,10.40
2017-04-15T08:04:41.543Z,11.30
2017-04-15T08:05:40.612Z,11.57
2017-04-15T08:06:39.622Z,15.77
2017-04-15T08:07:38.686Z,11.97
2017-04-15T08:08:37.670Z,12.45
2017-04-15T08:09:36.650Z,12.60
2017-04-15T08:10:35.773Z,10.90
2017-04-15T08:11:34.809Z,13.72
2017-04-15T08:12:33.791Z,10.57
2017-04-15T08:13:32.855Z,11.37
2017-04-15T08:14:31.821Z,11.80
2017-04-15T08:15:31.175Z,14.28
2017-04-15T08:16:30.143Z,12.02
2017-04-15T08:17:29.127Z,13.07
2017-04-15T08:18:28.099Z,13.92
2017-04-15T08:19:26.795Z,17.45
2017-04-15T08:20:25.778Z,12.80
2017-04-15T08:21:24.803Z,13.38
2017-04-15T08:22:24.207Z,12.17
2017-04-15T08:23:23.219Z,13.65
2017-04-15T08:24:22.268Z,13.53
2017-04-15T08:25:21.275Z,10.95
2017-04-15T08:26:20.218Z,11.07
2017-04-15T08:27:19.221Z,12.43
2017-04-15T08:28:18.259Z,12.87
2017-04-15T08:29:17.223Z,13.28
2017-04-15T08:30:16.226Z,11.92
2017-04-15T08:31:15.254Z,11.47
2017-04-15T08:32:14.235Z,12.13
2017-04-15T08:33:13.193Z,12.18
2017-04-15T08:34:11.783Z,12.27
2017-04-15T08:35:10.827Z,12.67
2017-04-15T08:36:09.740Z,12.15
2017-04-15T08:37:08.747Z,11.83
2017-04-15T08:38:07.827Z,12.80
2017-04-15T08:39:06.814Z,11.20
2017-04-15T08:40:06.204Z,13.08
2017-04-15T08:41:04.849Z,11.15
2017-04-15T08:42:03.840Z,11.78
2017-04-15T08:43:02.891Z,12.85
2017-04-15T08:44:01.567Z,12.27
2017-04-15T08:45:00.526Z,11.63
2017-04-15T08:45:59.645Z,12.23
2017-04-15T08:46:58.624Z,11.78
2017-04-15T08:47:57.640Z,13.52
2017-04-15T08:48:56.666Z,12.40
2017-04-15T08:49:55.346Z,12.30
2017-04-15T08:50:54.294Z,10.90
2017-04-15T08:51:53.275Z,13.63
2017-04-15T08:52:52.255Z,11.82
2017-04-15T08:53:51.304Z,11.78
2017-04-15T08:54:50.278Z,11.52
2017-04-15T08:55:49.330Z,12.33
2017-04-15T08:56:48.711Z,12.45
2017-04-15T08:57:47.715Z,12.23
2017-04-15T08:58:46.733Z,14.85
2017-04-15T08:59:45.740Z,12.35
2017-04-15T09:00:44.755Z,13.18
2017-04-15T09:01:43.727Z,12.25
2017-04-15T09:02:42.696Z,12.77
2017-04-15T09:03:41.745Z,12.75
2017-04-15T09:04:40.710Z,12.47
2017-04-15T09:05:39.670Z,11.75
2017-04-15T09:06:38.677Z,12.27
2017-04-15T09:07:37.630Z,12.70
2017-04-15T09:08:36.850Z,12.85
2017-04-15T09:09:36.231Z,12.22
2017-04-15T09:10:35.223Z,11.80
2017-04-15T09:11:34.206Z,11.77
2017-04-15T09:12:33.203Z,11.65
2017-04-15T09:13:31.799Z,12.35
2017-04-15T09:14:30.787Z,13.10
2017-04-15T09:15:29.782Z,12.30
2017-04-15T09:16:28.779Z,12.32
2017-04-15T09:17:27.725Z,11.48
2017-04-15T09:18:26.740Z,12.93
2017-04-15T09:19:25.812Z,11.52
2017-04-15T09:20:24.870Z,12.60
2017-04-15T09:21:23.882Z,12.33
2017-04-15T09:22:22.891Z,11.83
2017-04-15T09:23:21.919Z,13.37
2017-04-15T09:24:20.866Z,12.17
2017-04-15T09:25:19.868Z,12.85
2017-04-15T09:26:18.845Z,11.02
2017-04-15T09:27:18.291Z,12.12
2017-04-15T09:28:17.321Z,12.68
2017-04-15T09:29:16.327Z,11.28
2017-04-15T09:30:15.362Z,12.35
2017-04-15T09:31:14.349Z,12.05
2017-04-15T09:32:13.378Z,13.32
2017-04-15T09:33:12.321Z,10.80
2017-04-15T09:34:11.330Z,12.10
2017-04-15T09:35:09.996Z,11.57
2017-04-15T09:36:09.000Z,11.03
2017-04-15T09:37:07.994Z,11.30
2017-04-15T09:38:07.005Z,10.72
2017-04-15T09:39:07.534Z,11.38
2017-04-15T09:40:06.533Z,11.75
2017-04-15T09:41:05.250Z,10.57
2017-04-15T09:42:04.401Z,11.75
2017-04-15T09:43:03.428Z,10.95
2017-04-15T09:44:02.381Z,11.25
2017-04-15T09:45:01.388Z,11.55
2017-04-15T09:46:00.422Z,11.48
2017-04-15T09:46:59.043Z,11.35
2017-04-15T09:47:58.108Z,10.55
2017-04-15T09:48:57.628Z,10.02
2017-04-15T09:49:56.680Z,10.65
2017-04-15T09:50:55.655Z,10.28
2017-04-15T09:51:54.691Z,10.17
2017-04-15T09:52:53.699Z,11.10
2017-04-15T09:53:52.673Z,11.65
2017-04-15T09:54:51.670Z,11.20
2017-04-15T09:55:50.790Z,10.47
2017-04-15T09:56:49.776Z,11.23
2017-04-15T09:57:48.752Z,9.15
2017-04-15T09:58:47.714Z,10.88
2017-04-15T09:59:46.707Z,9.48
2017-04-15T10:00:45.751Z,11.28
2017-04-15T10:01:45.483Z,10.30
2017-04-15T10:02:44.165Z,8.45
2017-04-15T10:03:43.198Z,10.05
2017-04-15T10:04:42.232Z,9.55
2017-04-15T10:05:41.190Z,9.22
2017-04-15T10:06:39.780Z,10.42
2017-04-15T10:07:38.822Z,9.17
2017-04-15T10:08:37.848Z,8.38
2017-04-15T10:09:37.081Z,8.73
2017-04-15T10:10:36.058Z,8.27
2017-04-15T10:11:35.080Z,7.78
2017-04-15T10:12:34.087Z,8.40
2017-04-15T10:13:33.091Z,7.92
2017-04-15T10:14:32.189Z,8.27
2017-04-15T10:15:31.212Z,8.88
2017-04-15T10:16:30.192Z,8.93
2017-04-15T10:17:29.234Z,8.85
2017-04-15T10:18:28.192Z,7.65
2017-04-15T10:19:27.210Z,7.80
2017-04-15T10:20:26.307Z,8.03
2017-04-15T10:21:25.623Z,8.50
2017-04-15T10:22:24.634Z,7.92
2017-04-15T10:23:23.623Z,9.17
2017-04-15T10:24:22.643Z,7.88
2017-04-15T10:25:21.997Z,8.50
2017-04-15T10:26:20.999Z,8.50
2017-04-15T10:27:20.010Z,7.48
2017-04-15T10:28:19.847Z,8.75
2017-04-15T10:29:18.864Z,8.33
2017-04-15T10:30:17.898Z,7.60
2017-04-15T10:31:16.976Z,7.75
2017-04-15T10:32:16.030Z,8.68
2017-04-15T10:33:15.096Z,7.47
2017-04-15T10:34:14.074Z,7.12
2017-04-15T10:35:13.085Z,8.30
2017-04-15T10:36:12.093Z,8.17
2017-04-15T10:37:11.058Z,8.57
2017-04-15T10:38:10.089Z,8.33
2017-04-15T10:39:09.135Z,9.20
2017-04-15T10:40:08.491Z,7.63
2017-04-15T10:41:07.480Z,8.17
2017-04-15T10:42:06.130Z,8.50
2017-04-15T10:43:05.476Z,8.62
2017-04-15T10:44:04.483Z,8.58
2017-04-15T10:45:03.490Z,8.97
2017-04-15T10:46:02.558Z,9.00
2017-04-15T10:47:01.821Z,8.07
2017-04-15T10:48:00.763Z,8.72
2017-04-15T10:48:59.829Z,9.07
2017-04-15T10:49:58.827Z,8.90
2017-04-15T10:50:57.935Z,8.32
2017-04-15T10:51:56.929Z,8.22
2017-04-15T10:52:55.947Z,9.13
2017-04-15T10:53:54.999Z,8.72
2017-04-15T10:54:53.988Z,8.92
2017-04-15T10:55:53.053Z,8.85
2017-04-15T10:56:52.135Z,9.00
2017-04-15T10:57:51.123Z,8.78
2017-04-15T10:58:50.115Z,8.10
2017-04-15T10:59:49.144Z,8.10
2017-04-15T11:00:48.132Z,8.98
2017-04-15T11:01:47.188Z,9.33
2017-04-15T11:02:46.160Z,9.58
2017-04-15T11:03:45.175Z,9.68
2017-04-15T11:04:44.248Z,9.55
2017-04-15T11:05:43.873Z,9.00
2017-04-15T11:06:43.062Z,9.63
2017-04-15T11:07:42.052Z,9.55
2017-04-15T11:08:41.176Z,9.22
2017-04-15T11:09:40.155Z,9.42
2017-04-15T11:10:39.090Z,8.60
2017-04-15T11:11:38.064Z,8.63
2017-04-15T11:12:37.015Z,9.27
2017-04-15T11:13:35.929Z,9.22
2017-04-15T11:14:34.927Z,8.53
2017-04-15T11:15:33.923Z,8.38
2017-04-15T11:16:32.948Z,9.30
2017-04-15T11:17:31.870Z,8.85
2017-04-15T11:18:30.903Z,8.60
2017-04-15T11:19:29.876Z,8.72
2017-04-15T11:20:28.895Z,8.98
2017-04-15T11:21:27.869Z,8.30
2017-04-15T11:22:26.856Z,8.82
2017-04-15T11:23:25.883Z,11.87
2017-04-15T11:24:24.859Z,7.60
2017-04-15T11:25:23.836Z,7.90
2017-04-15T11:26:22.879Z,7.37
2017-04-15T11:27:21.840Z,8.00
2017-04-15T11:28:20.831Z,7.32
2017-04-15T11:29:19.771Z,7.15
2017-04-15T11:30:18.767Z,7.73
2017-04-15T11:31:17.796Z,6.80
2017-04-15T11:32:16.813Z,7.50
2017-04-15T11:33:15.763Z,7.62
2017-04-15T11:34:14.786Z,6.70
2017-04-15T11:35:13.799Z,8.37
2017-04-15T11:36:12.754Z,7.72
2017-04-15T11:37:11.726Z,8.12
2017-04-15T11:38:10.323Z,7.33
2017-04-15T11:39:09.296Z,7.37
2017-04-15T11:40:07.923Z,9.12
2017-04-15T11:41:06.895Z,7.57
2017-04-15T11:42:05.859Z,8.23
2017-04-15T11:43:04.877Z,7.08
2017-04-15T11:44:04.981Z,7.07
2017-04-15T11:45:04.042Z,7.90
2017-04-15T11:46:03.043Z,7.18
2017-04-15T11:47:01.986Z,7.57
2017-04-15T11:48:00.923Z,8.33
2017-04-15T11:48:59.881Z,7.18
2017-04-15T11:49:58.899Z,7.83
2017-04-15T11:50:57.880Z,7.57
2017-04-15T11:51:56.850Z,8.65
2017-04-15T11:52:55.824Z,8.25
2017-04-15T11:53:54.864Z,7.63
2017-04-15T11:54:53.779Z,9.77
2017-04-15T11:55:52.791Z,6.97
2017-04-15T11:56:51.775Z,7.88
2017-04-15T11:57:51.094Z,7.58
2017-04-15T11:58:50.092Z,7.88
2017-04-15T11:59:49.124Z,7.68
2017-04-15T12:00:48.070Z,7.70
2017-04-15T12:01:47.087Z,7.13
2017-04-15T12:02:46.073Z,8.67
2017-04-15T12:03:45.046Z,7.88
2017-04-15T12:04:44.011Z,7.23
2017-04-15T12:05:42.616Z,9.83
2017-04-15T12:06:41.591Z,8.05
2017-04-15T12:07:40.605Z,7.10
2017-04-15T12:08:39.587Z,7.30
2017-04-15T12:09:38.558Z,7.50
2017-04-15T12:10:37.498Z,7.05
2017-04-15T12:11:36.460Z,7.52
2017-04-15T12:12:35.496Z,6.70
2017-04-15T12:13:34.485Z,6.67
2017-04-15T12:14:33.438Z,6.63
2017-04-15T12:15:32.408Z,6.30
2017-04-15T12:16:31.422Z,5.97
2017-04-15T12:17:30.419Z,6.83
2017-04-15T12:18:29.399Z,6.18
2017-04-15T12:19:28.542Z,6.33
2017-04-15T12:20:27.478Z,6.70
2017-04-15T12:21:26.439Z,7.03
2017-04-15T12:22:25.815Z,7.15
2017-04-15T12:23:24.780Z,6.70
2017-04-15T12:24:23.725Z,5.62
2017-04-15T12:25:22.742Z,7.07
2017-04-15T12:26:21.315Z,8.87
2017-04-15T12:27:20.311Z,6.42
2017-04-15T12:28:19.260Z,6.50
2017-04-15T12:29:18.254Z,6.22
2017-04-15T12:30:17.219Z,6.70
2017-04-15T12:31:16.230Z,6.08
2017-04-15T12:32:15.194Z,6.33
2017-04-15T12:33:14.183Z,6.47
2017-04-15T12:34:13.260Z,6.37
2017-04-15T12:35:12.620Z,7.13
2017-04-15T12:36:11.607Z,6.93
2017-04-15T12:37:10.624Z,6.73
2017-04-15T12:38:09.602Z,6.95
2017-04-15T12:39:08.609Z,6.07
2017-04-15T12:40:07.607Z,5.82
2017-04-15T12:41:06.604Z,6.32
2017-04-15T12:42:05.580Z,5.88
2017-04-15T12:43:04.602Z,6.00
2017-04-15T12:44:03.571Z,6.00
2017-04-15T12:45:02.491Z,7.05
2017-04-15T12:46:01.484Z,6.20
2017-04-15T12:47:00.431Z,6.32
2017-04-15T12:47:59.402Z,6.78
2017-04-15T12:48:58.411Z,6.40
2017-04-15T12:49:57.404Z,5.45
2017-04-15T12:50:56.392Z,6.15
2017-04-15T12:51:55.412Z,5.47
2017-04-15T12:52:54.391Z,5.33
2017-04-15T12:53:52.989Z,6.35
2017-04-15T12:54:51.950Z,5.57
2017-04-15T12:55:50.948Z,6.08
2017-04-15T12:56:49.903Z,5.67
2017-04-15T12:57:48.911Z,6.30
2017-04-15T12:58:47.943Z,5.97